»·PEaware :: AAL644 KPHX-KONT

AAL644 :: KPHX-KONT

FLIGHT INFORMATION

Flight Status: Arrived
Operator:
American Airlines
More flights by this operator :: More flights under this callsign
Pilot: Brandon G. (13)
Aircraft: AIRBUS A320
(A320)
More flights by this aircraft type
Origin: KPHX Phoenix Sky Harbor Intl
United States
Destination: KONT Ontario Intl
United States
More flights between these airports :: More routes between these airports
Route: +IZZZO6 HRRBR PHRED SCBBY1
File this flight plan on PilotEdge
Remarks:
Altitude:
(Current/Filed)
28,000ft
Speed:
(Current/Filed)
425kts
Departed: 28-Aug-17 06:14 PM
Arrived: 28-Aug-17 07:04 PM
Distance/Time
Traveled:
281nm/0:50
Distance/Time
To Go:
Arrived

Flight Plot

Page will automatically refresh every two minutes.

Flight plan parsing failed; only flown route is shown


Map Options




Map Legend


Flown Route
Filed Route
Departure Airport
Arrival Airport
Navaid (VOR, NDB)
Fix

Horizontal Profiles

Position Reports

Time Latitude Longitude Heading Altitude Ground
Speed
28-Aug-17 17:53 33.438268 -111.994560 180 1133ft 0kts
28-Aug-17 17:54 33.438268 -111.994560 180 1133ft 0kts
28-Aug-17 17:55 33.438268 -111.994560 180 1133ft 0kts
28-Aug-17 17:56 33.438268 -111.994560 180 1133ft 0kts
28-Aug-17 17:57 33.438268 -111.994560 180 1133ft 0kts
28-Aug-17 17:58 33.438268 -111.994560 180 1133ft 0kts
28-Aug-17 17:59 33.438268 -111.994560 180 1133ft 0kts
28-Aug-17 18:00 33.438268 -111.994560 180 1133ft 0kts
28-Aug-17 18:01 33.438268 -111.994560 179 1133ft 0kts
28-Aug-17 18:02 33.438268 -111.994560 179 1133ft 0kts
28-Aug-17 18:03 33.438268 -111.994560 179 1133ft 0kts
28-Aug-17 18:04 33.438268 -111.994560 179 1133ft 0kts
28-Aug-17 18:05 33.438268 -111.994560 179 1133ft 0kts
28-Aug-17 18:06 33.438268 -111.994560 179 1133ft 0kts
28-Aug-17 18:07 33.438268 -111.994560 179 1133ft 0kts
28-Aug-17 18:08 33.438268 -111.994560 179 1133ft 0kts
28-Aug-17 18:09 33.438268 -111.994560 179 1133ft 0kts
28-Aug-17 18:10 33.438268 -111.994560 179 1133ft 0kts
28-Aug-17 18:11 33.438268 -111.994560 179 1133ft 0kts
28-Aug-17 18:12 33.438704 -111.994180 276 1134ft 0kts
28-Aug-17 18:13 33.438704 -111.994180 277 1134ft 0kts
28-Aug-17 18:14 33.438724 -111.994371 277 1134ft 7kts
28-Aug-17 18:15 33.439736 -112.001524 270 1130ft 33kts
28-Aug-17 18:16 33.439773 -112.013973 269 1126ft 38kts
28-Aug-17 18:17 33.439734 -112.026372 270 1117ft 35kts
28-Aug-17 18:18 33.440875 -112.021755 90 1120ft 100kts
28-Aug-17 18:19 33.439488 -111.967441 92 2969ft 190kts
28-Aug-17 18:20 33.436134 -111.897167 93 5987ft 249kts
28-Aug-17 18:21 33.380369 -111.855130 203 9254ft 325kts
28-Aug-17 18:22 33.360567 -111.945145 278 12207ft 320kts
28-Aug-17 18:23 33.375017 -112.058598 280 14014ft 370kts
28-Aug-17 18:24 33.392110 -112.180909 280 16836ft 381kts
28-Aug-17 18:25 33.409661 -112.306948 280 19277ft 395kts
28-Aug-17 18:26 33.427623 -112.436568 280 21685ft 402kts
28-Aug-17 18:27 33.445731 -112.568408 280 23820ft 410kts
28-Aug-17 18:28 33.451526 -112.703357 271 25658ft 419kts
28-Aug-17 18:29 33.460749 -112.841821 284 27354ft 424kts
28-Aug-17 18:30 33.486001 -112.979459 283 27860ft 440kts
28-Aug-17 18:31 33.513344 -113.126952 283 27864ft 478kts
28-Aug-17 18:32 33.541882 -113.280903 283 27864ft 474kts
28-Aug-17 18:33 33.565492 -113.409005 283 27864ft 475kts
28-Aug-17 18:34 33.593835 -113.562574 284 27863ft 475kts
28-Aug-17 18:35 33.626756 -113.739795 283 27801ft 474kts
28-Aug-17 18:36 33.648784 -113.868520 274 27784ft 478kts
28-Aug-17 18:37 33.647274 -114.027405 270 27788ft 478kts
28-Aug-17 18:38 33.652344 -114.185093 278 27789ft 477kts
28-Aug-17 18:39 33.661015 -114.274706 278 27791ft 477kts
28-Aug-17 18:40 33.676474 -114.431828 278 27791ft 477kts
28-Aug-17 18:41 33.690966 -114.580855 278 27791ft 477kts
28-Aug-17 18:42 33.705687 -114.734343 277 27791ft 477kts
28-Aug-17 18:43 33.720593 -114.891747 277 27793ft 475kts
28-Aug-17 18:44 33.735057 -115.046564 277 27793ft 475kts
28-Aug-17 18:45 33.749813 -115.203579 278 27793ft 475kts
28-Aug-17 18:46 33.765725 -115.360111 278 27793ft 473kts
28-Aug-17 18:47 33.781860 -115.517443 278 27153ft 480kts
28-Aug-17 18:48 33.796628 -115.662454 277 26337ft 484kts
28-Aug-17 18:49 33.812189 -115.819395 276 24994ft 487kts
28-Aug-17 18:50 33.828154 -115.980408 276 23240ft 482kts
28-Aug-17 18:51 33.843583 -116.136400 276 21392ft 474kts
28-Aug-17 18:52 33.859374 -116.291202 277 19596ft 466kts
28-Aug-17 18:53 33.875484 -116.439523 278 17594ft 456kts
28-Aug-17 18:54 33.909006 -116.582630 286 15321ft 439kts
28-Aug-17 18:55 33.940467 -116.707619 285 13956ft 431kts
28-Aug-17 18:56 33.944798 -116.848241 267 11419ft 418kts
28-Aug-17 18:57 33.946776 -116.972004 290 9889ft 326kts
28-Aug-17 18:58 33.976185 -117.061139 291 9089ft 268kts
28-Aug-17 18:59 34.002049 -117.139277 291 8005ft 236kts
28-Aug-17 19:00 34.030584 -117.210676 302 6197ft 235kts
28-Aug-17 19:01 34.055827 -117.271876 267 5559ft 183kts
28-Aug-17 19:02 34.056361 -117.333725 269 5050ft 186kts
28-Aug-17 19:03 34.056636 -117.394328 269 4070ft 173kts
28-Aug-17 19:04 34.056745 -117.450872 269 3112ft 169kts
28-Aug-17 19:05 34.056813 -117.501639 268 2274ft 147kts
28-Aug-17 19:06 34.056861 -117.550520 268 1490ft 144kts
28-Aug-17 19:07 34.056888 -117.596945 269 931ft 89kts
28-Aug-17 19:08 34.057545 -117.607579 6 940ft 9kts
28-Aug-17 19:09 34.058008 -117.600632 90 935ft 33kts
28-Aug-17 19:10 34.059034 -117.594950 69 938ft 22kts
28-Aug-17 19:11 34.059829 -117.594486 1 940ft 0kts
28-Aug-17 19:12 34.059829 -117.594486 1 940ft 0kts
28-Aug-17 19:13 34.059829 -117.594486 1 940ft 0kts

Navigation Log

Ident Type
Flight plan parsing failed, navigation log unavailable